CheckWX is a tool to help pilots better visualize weather data.  It is not intended as a substitute for an official pre-flight weather briefing.

06:09:29 UTC

CYKJ METAR
Key Lake Airport
Key Lake, Canada
Current

1 hour ago

CYKJ 230500Z AUTO 16013G20KT 9SM BKN120 BKN140 09/M01 A2963 RMK SLP050
Observed
Apr-23 @ 05:00 UTC
Wind
  • 160° at 13 KTS
  • Gusting to 20 KTS
Visibility
9 SM
Flight Rules
VFR
Cloud Levels
  • Broken at 12,000' AGL
  • Broken at 14,000' AGL
Temperature
C / 48°F
Dewpoint
-1°C / 30°F
Humidity
50%
Altimeter
29.63" Hg
Pressure
1003.42 hPa
Previous

2 hours ago

CYKJ 230400Z AUTO 14012G18KT 9SM FEW150 09/M02 A2966 RMK SLP062
Observed
Apr-23 @ 04:00 UTC
Wind
  • 140° at 12 KTS
  • Gusting to 18 KTS
Visibility
9 SM
Flight Rules
VFR
Cloud Levels
  • Few at 15,000' AGL
Temperature
C / 48°F
Dewpoint
-2°C / 28°F
Humidity
46%
Altimeter
29.66" Hg
Pressure
1004.42 hPa
Previous

3 hours ago

CYKJ 230300Z AUTO 14012G18KT 9SM SCT130 SCT150 10/M02 A2970 RMK SLP077 DENSITY ALT 1700FT
Observed
Apr-23 @ 03:00 UTC
Wind
  • 140° at 12 KTS
  • Gusting to 18 KTS
Visibility
9 SM
Flight Rules
VFR
Cloud Levels
  • Scattered at 13,000' AGL
  • Scattered at 15,000' AGL
Temperature
10°C / 50°F
Dewpoint
-2°C / 28°F
Humidity
43%
Altimeter
29.7" Hg
Pressure
1005.72 hPa